sensor_id;sensor_type;location;lat;lon;timestamp;P1;durP1;ratioP1;P2;durP2;ratioP2
62654;SDS011;48717;55.556;37.816;2023-05-10T00:01:12;11.82;;;6.82;;
62654;SDS011;48717;55.556;37.816;2023-05-10T00:03:39;19.90;;;8.82;;
62654;SDS011;48717;55.556;37.816;2023-05-10T00:06:07;17.52;;;7.80;;
62654;SDS011;48717;55.556;37.816;2023-05-10T00:08:34;21.42;;;8.32;;
62654;SDS011;48717;55.556;37.816;2023-05-10T00:11:01;13.98;;;7.32;;
62654;SDS011;48717;55.556;37.816;2023-05-10T00:13:28;15.00;;;7.47;;
62654;SDS011;48717;55.556;37.816;2023-05-10T00:15:55;18.67;;;7.35;;
62654;SDS011;48717;55.556;37.816;2023-05-10T00:18:22;17.83;;;8.23;;
62654;SDS011;48717;55.556;37.816;2023-05-10T00:20:49;28.60;;;13.82;;
62654;SDS011;48717;55.556;37.816;2023-05-10T00:23:17;28.23;;;9.95;;
62654;SDS011;48717;55.556;37.816;2023-05-10T00:25:44;19.95;;;8.95;;
62654;SDS011;48717;55.556;37.816;2023-05-10T00:28:11;23.23;;;9.48;;
62654;SDS011;48717;55.556;37.816;2023-05-10T00:30:38;22.30;;;8.80;;
62654;SDS011;48717;55.556;37.816;2023-05-10T00:33:05;15.30;;;8.52;;
62654;SDS011;48717;55.556;37.816;2023-05-10T00:35:32;18.25;;;9.50;;
62654;SDS011;48717;55.556;37.816;2023-05-10T00:38:00;19.52;;;8.93;;
62654;SDS011;48717;55.556;37.816;2023-05-10T00:40:27;23.58;;;8.77;;
62654;SDS011;48717;55.556;37.816;2023-05-10T00:42:59;23.15;;;8.85;;
62654;SDS011;48717;55.556;37.816;2023-05-10T00:45:27;15.32;;;8.43;;
62654;SDS011;48717;55.556;37.816;2023-05-10T00:47:56;19.63;;;9.00;;
62654;SDS011;48717;55.556;37.816;2023-05-10T00:50:23;20.95;;;8.50;;
62654;SDS011;48717;55.556;37.816;2023-05-10T00:52:51;15.95;;;8.68;;
62654;SDS011;48717;55.556;37.816;2023-05-10T00:55:19;17.33;;;8.98;;
62654;SDS011;48717;55.556;37.816;2023-05-10T00:57:46;16.08;;;9.02;;
62654;SDS011;48717;55.556;37.816;2023-05-10T01:00:14;20.55;;;8.48;;
62654;SDS011;48717;55.556;37.816;2023-05-10T01:02:45;13.93;;;8.35;;
62654;SDS011;48717;55.556;37.816;2023-05-10T01:05:13;15.43;;;8.60;;
62654;SDS011;48717;55.556;37.816;2023-05-10T01:07:40;24.95;;;8.95;;
62654;SDS011;48717;55.556;37.816;2023-05-10T01:10:09;15.82;;;8.43;;
62654;SDS011;48717;55.556;37.816;2023-05-10T01:12:38;17.63;;;8.13;;
62654;SDS011;48717;55.556;37.816;2023-05-10T01:17:37;22.85;;;8.32;;
62654;SDS011;48717;55.556;37.816;2023-05-10T01:20:07;17.00;;;7.90;;
62654;SDS011;48717;55.556;37.816;2023-05-10T01:31:22;19.63;;;7.72;;
62654;SDS011;48717;55.556;37.816;2023-05-10T01:34:07;18.10;;;6.68;;
62654;SDS011;48717;55.556;37.816;2023-05-10T01:36:55;17.38;;;6.88;;
62654;SDS011;48717;55.556;37.816;2023-05-10T01:42:10;23.73;;;9.63;;
62654;SDS011;48717;55.556;37.816;2023-05-10T01:44:42;15.70;;;7.15;;
62654;SDS011;48717;55.556;37.816;2023-05-10T01:47:25;17.40;;;7.50;;
62654;SDS011;48717;55.556;37.816;2023-05-10T01:50:06;13.52;;;6.50;;
62654;SDS011;48717;55.556;37.816;2023-05-10T01:52:42;16.60;;;6.47;;
62654;SDS011;48717;55.556;37.816;2023-05-10T01:55:18;13.90;;;7.32;;
62654;SDS011;48717;55.556;37.816;2023-05-10T01:57:51;13.25;;;6.65;;
62654;SDS011;48717;55.556;37.816;2023-05-10T02:00:25;17.80;;;7.50;;
62654;SDS011;48717;55.556;37.816;2023-05-10T02:03:12;18.80;;;6.78;;
62654;SDS011;48717;55.556;37.816;2023-05-10T02:05:41;21.27;;;7.90;;
62654;SDS011;48717;55.556;37.816;2023-05-10T02:11:17;25.73;;;7.32;;
62654;SDS011;48717;55.556;37.816;2023-05-10T02:13:49;17.40;;;7.75;;
62654;SDS011;48717;55.556;37.816;2023-05-10T02:16:19;16.95;;;8.38;;
62654;SDS011;48717;55.556;37.816;2023-05-10T02:18:50;16.20;;;7.63;;
62654;SDS011;48717;55.556;37.816;2023-05-10T02:21:19;15.25;;;6.90;;
62654;SDS011;48717;55.556;37.816;2023-05-10T02:23:48;14.25;;;7.10;;
62654;SDS011;48717;55.556;37.816;2023-05-10T02:28:47;19.90;;;7.70;;
62654;SDS011;48717;55.556;37.816;2023-05-10T02:31:16;23.42;;;7.75;;
62654;SDS011;48717;55.556;37.816;2023-05-10T02:33:45;18.98;;;6.97;;
62654;SDS011;48717;55.556;37.816;2023-05-10T02:36:13;18.50;;;7.30;;
62654;SDS011;48717;55.556;37.816;2023-05-10T02:38:43;20.67;;;8.88;;
62654;SDS011;48717;55.556;37.816;2023-05-10T02:41:12;18.85;;;7.13;;
62654;SDS011;48717;55.556;37.816;2023-05-10T02:43:40;19.70;;;7.18;;
62654;SDS011;48717;55.556;37.816;2023-05-10T02:46:09;24.30;;;7.57;;
62654;SDS011;48717;55.556;37.816;2023-05-10T02:48:37;18.58;;;7.70;;
62654;SDS011;48717;55.556;37.816;2023-05-10T02:51:05;24.10;;;7.60;;
62654;SDS011;48717;55.556;37.816;2023-05-10T02:53:34;26.05;;;8.73;;
62654;SDS011;48717;55.556;37.816;2023-05-10T02:56:05;19.60;;;7.47;;
62654;SDS011;48717;55.556;37.816;2023-05-10T02:58:40;15.40;;;7.40;;
62654;SDS011;48717;55.556;37.816;2023-05-10T03:01:07;24.45;;;7.40;;
62654;SDS011;48717;55.556;37.816;2023-05-10T03:03:34;16.45;;;8.10;;
62654;SDS011;48717;55.556;37.816;2023-05-10T03:06:03;21.67;;;7.30;;
62654;SDS011;48717;55.556;37.816;2023-05-10T03:08:31;18.75;;;7.68;;
62654;SDS011;48717;55.556;37.816;2023-05-10T03:17:00;20.02;;;7.22;;
62654;SDS011;48717;55.556;37.816;2023-05-10T03:22:14;24.42;;;8.27;;
62654;SDS011;48717;55.556;37.816;2023-05-10T03:25:07;18.60;;;7.88;;
62654;SDS011;48717;55.556;37.816;2023-05-10T03:27:40;28.00;;;7.72;;
62654;SDS011;48717;55.556;37.816;2023-05-10T03:30:10;18.83;;;7.82;;
62654;SDS011;48717;55.556;37.816;2023-05-10T03:32:39;30.40;;;7.47;;
62654;SDS011;48717;55.556;37.816;2023-05-10T03:35:10;19.90;;;7.28;;
62654;SDS011;48717;55.556;37.816;2023-05-10T03:37:39;26.75;;;7.82;;
62654;SDS011;48717;55.556;37.816;2023-05-10T03:40:06;30.50;;;7.97;;
62654;SDS011;48717;55.556;37.816;2023-05-10T03:42:36;24.98;;;8.07;;
62654;SDS011;48717;55.556;37.816;2023-05-10T03:45:03;31.52;;;8.10;;
62654;SDS011;48717;55.556;37.816;2023-05-10T03:47:32;33.17;;;8.13;;
62654;SDS011;48717;55.556;37.816;2023-05-10T03:49:59;40.65;;;7.95;;
62654;SDS011;48717;55.556;37.816;2023-05-10T03:52:31;26.27;;;8.32;;
62654;SDS011;48717;55.556;37.816;2023-05-10T03:54:58;20.23;;;8.13;;
62654;SDS011;48717;55.556;37.816;2023-05-10T03:57:25;29.50;;;8.70;;
62654;SDS011;48717;55.556;37.816;2023-05-10T03:59:52;27.13;;;8.52;;
62654;SDS011;48717;55.556;37.816;2023-05-10T04:02:19;29.33;;;7.97;;
62654;SDS011;48717;55.556;37.816;2023-05-10T04:04:46;32.25;;;8.35;;
62654;SDS011;48717;55.556;37.816;2023-05-10T04:07:14;24.98;;;8.57;;
62654;SDS011;48717;55.556;37.816;2023-05-10T04:09:42;24.42;;;8.13;;
62654;SDS011;48717;55.556;37.816;2023-05-10T04:12:09;20.33;;;8.02;;
62654;SDS011;48717;55.556;37.816;2023-05-10T04:14:36;24.10;;;8.13;;
62654;SDS011;48717;55.556;37.816;2023-05-10T04:17:03;25.70;;;8.60;;
62654;SDS011;48717;55.556;37.816;2023-05-10T04:19:31;27.75;;;8.80;;
62654;SDS011;48717;55.556;37.816;2023-05-10T04:21:58;33.03;;;8.55;;
62654;SDS011;48717;55.556;37.816;2023-05-10T04:24:26;28.42;;;8.77;;
62654;SDS011;48717;55.556;37.816;2023-05-10T04:26:53;36.83;;;8.48;;
62654;SDS011;48717;55.556;37.816;2023-05-10T04:29:23;36.60;;;9.40;;
62654;SDS011;48717;55.556;37.816;2023-05-10T04:31:50;29.20;;;8.85;;
62654;SDS011;48717;55.556;37.816;2023-05-10T04:34:17;30.00;;;9.43;;
62654;SDS011;48717;55.556;37.816;2023-05-10T04:36:45;25.98;;;9.15;;
62654;SDS011;48717;55.556;37.816;2023-05-10T04:39:12;26.52;;;9.13;;
62654;SDS011;48717;55.556;37.816;2023-05-10T04:41:40;20.88;;;8.38;;
62654;SDS011;48717;55.556;37.816;2023-05-10T04:44:07;28.05;;;8.38;;
62654;SDS011;48717;55.556;37.816;2023-05-10T04:46:34;29.48;;;8.90;;
62654;SDS011;48717;55.556;37.816;2023-05-10T04:49:01;20.02;;;8.45;;
62654;SDS011;48717;55.556;37.816;2023-05-10T04:51:29;34.47;;;8.88;;
62654;SDS011;48717;55.556;37.816;2023-05-10T04:53:56;28.10;;;8.95;;
62654;SDS011;48717;55.556;37.816;2023-05-10T04:56:32;24.55;;;9.05;;
62654;SDS011;48717;55.556;37.816;2023-05-10T04:59:00;39.90;;;9.20;;
62654;SDS011;48717;55.556;37.816;2023-05-10T05:01:27;29.35;;;7.93;;
62654;SDS011;48717;55.556;37.816;2023-05-10T05:03:54;25.63;;;8.90;;
62654;SDS011;48717;55.556;37.816;2023-05-10T05:06:22;40.97;;;8.95;;
62654;SDS011;48717;55.556;37.816;2023-05-10T05:08:49;27.20;;;8.88;;
62654;SDS011;48717;55.556;37.816;2023-05-10T05:11:19;36.70;;;8.73;;
62654;SDS011;48717;55.556;37.816;2023-05-10T05:13:47;38.78;;;9.07;;
62654;SDS011;48717;55.556;37.816;2023-05-10T05:16:14;27.55;;;8.70;;
62654;SDS011;48717;55.556;37.816;2023-05-10T05:18:42;33.90;;;8.52;;
62654;SDS011;48717;55.556;37.816;2023-05-10T05:21:15;26.75;;;8.25;;
62654;SDS011;48717;55.556;37.816;2023-05-10T05:23:43;24.67;;;8.38;;
62654;SDS011;48717;55.556;37.816;2023-05-10T05:26:11;43.67;;;9.95;;
62654;SDS011;48717;55.556;37.816;2023-05-10T05:28:38;50.45;;;11.77;;
62654;SDS011;48717;55.556;37.816;2023-05-10T05:31:06;41.70;;;9.63;;
62654;SDS011;48717;55.556;37.816;2023-05-10T05:33:36;44.33;;;9.52;;
62654;SDS011;48717;55.556;37.816;2023-05-10T05:36:04;37.72;;;9.30;;
62654;SDS011;48717;55.556;37.816;2023-05-10T05:38:32;37.80;;;8.88;;
62654;SDS011;48717;55.556;37.816;2023-05-10T05:40:59;34.88;;;9.23;;
62654;SDS011;48717;55.556;37.816;2023-05-10T05:43:26;34.92;;;8.73;;
62654;SDS011;48717;55.556;37.816;2023-05-10T05:45:54;37.28;;;9.55;;
62654;SDS011;48717;55.556;37.816;2023-05-10T05:48:21;42.33;;;9.32;;
62654;SDS011;48717;55.556;37.816;2023-05-10T05:50:48;37.72;;;9.60;;
62654;SDS011;48717;55.556;37.816;2023-05-10T05:53:15;32.90;;;9.55;;
62654;SDS011;48717;55.556;37.816;2023-05-10T05:55:52;33.70;;;8.93;;
62654;SDS011;48717;55.556;37.816;2023-05-10T05:58:20;34.78;;;7.53;;
62654;SDS011;48717;55.556;37.816;2023-05-10T06:00:48;38.53;;;8.38;;
62654;SDS011;48717;55.556;37.816;2023-05-10T06:03:15;46.72;;;8.15;;
62654;SDS011;48717;55.556;37.816;2023-05-10T06:05:43;43.22;;;8.15;;
62654;SDS011;48717;55.556;37.816;2023-05-10T06:08:10;33.47;;;7.32;;
62654;SDS011;48717;55.556;37.816;2023-05-10T06:10:37;17.65;;;6.60;;
62654;SDS011;48717;55.556;37.816;2023-05-10T06:13:04;21.00;;;6.97;;
62654;SDS011;48717;55.556;37.816;2023-05-10T06:15:32;39.95;;;7.13;;
62654;SDS011;48717;55.556;37.816;2023-05-10T06:17:59;42.28;;;7.70;;
62654;SDS011;48717;55.556;37.816;2023-05-10T06:20:26;35.17;;;7.60;;
62654;SDS011;48717;55.556;37.816;2023-05-10T06:22:54;19.42;;;5.63;;
62654;SDS011;48717;55.556;37.816;2023-05-10T06:25:21;19.08;;;4.88;;
62654;SDS011;48717;55.556;37.816;2023-05-10T06:27:48;34.05;;;5.47;;
62654;SDS011;48717;55.556;37.816;2023-05-10T06:30:19;23.63;;;5.25;;
62654;SDS011;48717;55.556;37.816;2023-05-10T06:32:46;30.80;;;5.25;;
62654;SDS011;48717;55.556;37.816;2023-05-10T06:35:14;15.13;;;3.63;;
62654;SDS011;48717;55.556;37.816;2023-05-10T06:37:41;26.33;;;4.00;;
62654;SDS011;48717;55.556;37.816;2023-05-10T06:40:08;6.28;;;2.50;;
62654;SDS011;48717;55.556;37.816;2023-05-10T06:42:36;18.67;;;3.10;;
62654;SDS011;48717;55.556;37.816;2023-05-10T06:45:03;3.78;;;2.08;;
62654;SDS011;48717;55.556;37.816;2023-05-10T06:47:31;17.23;;;3.75;;
62654;SDS011;48717;55.556;37.816;2023-05-10T06:49:59;14.48;;;2.97;;
62654;SDS011;48717;55.556;37.816;2023-05-10T06:52:29;7.60;;;2.28;;
62654;SDS011;48717;55.556;37.816;2023-05-10T06:54:56;8.63;;;1.92;;
62654;SDS011;48717;55.556;37.816;2023-05-10T06:57:24;4.57;;;2.05;;
62654;SDS011;48717;55.556;37.816;2023-05-10T06:59:55;5.65;;;2.08;;
62654;SDS011;48717;55.556;37.816;2023-05-10T07:02:23;5.95;;;1.95;;
62654;SDS011;48717;55.556;37.816;2023-05-10T07:04:50;2.97;;;1.42;;
62654;SDS011;48717;55.556;37.816;2023-05-10T07:07:18;4.07;;;1.48;;
62654;SDS011;48717;55.556;37.816;2023-05-10T07:09:45;7.72;;;1.63;;
62654;SDS011;48717;55.556;37.816;2023-05-10T07:12:13;7.95;;;1.67;;
62654;SDS011;48717;55.556;37.816;2023-05-10T07:14:41;12.60;;;2.20;;
62654;SDS011;48717;55.556;37.816;2023-05-10T07:17:09;7.18;;;1.98;;
62654;SDS011;48717;55.556;37.816;2023-05-10T07:19:36;5.75;;;1.83;;
62654;SDS011;48717;55.556;37.816;2023-05-10T07:22:03;6.90;;;2.63;;
62654;SDS011;48717;55.556;37.816;2023-05-10T07:24:31;12.00;;;1.98;;
62654;SDS011;48717;55.556;37.816;2023-05-10T07:26:58;6.90;;;1.90;;
62654;SDS011;48717;55.556;37.816;2023-05-10T07:29:26;2.22;;;1.80;;
62654;SDS011;48717;55.556;37.816;2023-05-10T07:31:53;5.03;;;1.73;;
62654;SDS011;48717;55.556;37.816;2023-05-10T07:34:24;17.45;;;2.90;;
62654;SDS011;48717;55.556;37.816;2023-05-10T07:36:51;6.80;;;1.80;;
62654;SDS011;48717;55.556;37.816;2023-05-10T07:39:19;5.13;;;1.80;;
62654;SDS011;48717;55.556;37.816;2023-05-10T07:41:54;4.53;;;1.77;;
62654;SDS011;48717;55.556;37.816;2023-05-10T07:44:21;5.10;;;1.75;;
62654;SDS011;48717;55.556;37.816;2023-05-10T07:46:48;6.10;;;2.03;;
62654;SDS011;48717;55.556;37.816;2023-05-10T07:49:16;5.00;;;2.00;;
62654;SDS011;48717;55.556;37.816;2023-05-10T07:51:43;2.78;;;2.00;;
62654;SDS011;48717;55.556;37.816;2023-05-10T07:54:10;4.82;;;2.15;;
62654;SDS011;48717;55.556;37.816;2023-05-10T07:56:37;8.27;;;2.13;;
62654;SDS011;48717;55.556;37.816;2023-05-10T07:59:04;12.38;;;2.55;;
62654;SDS011;48717;55.556;37.816;2023-05-10T08:01:35;14.85;;;2.28;;
62654;SDS011;48717;55.556;37.816;2023-05-10T08:04:02;5.30;;;2.28;;
62654;SDS011;48717;55.556;37.816;2023-05-10T08:06:29;32.45;;;3.55;;
62654;SDS011;48717;55.556;37.816;2023-05-10T08:08:57;30.83;;;4.72;;
62654;SDS011;48717;55.556;37.816;2023-05-10T08:11:24;17.33;;;3.85;;
62654;SDS011;48717;55.556;37.816;2023-05-10T08:13:51;9.68;;;2.60;;
62654;SDS011;48717;55.556;37.816;2023-05-10T08:16:18;5.28;;;2.40;;
62654;SDS011;48717;55.556;37.816;2023-05-10T08:18:46;4.15;;;1.80;;
62654;SDS011;48717;55.556;37.816;2023-05-10T08:21:14;4.32;;;2.08;;
62654;SDS011;48717;55.556;37.816;2023-05-10T08:23:42;16.00;;;2.50;;
62654;SDS011;48717;55.556;37.816;2023-05-10T08:26:10;9.93;;;2.38;;
62654;SDS011;48717;55.556;37.816;2023-05-10T08:28:38;4.90;;;1.75;;
62654;SDS011;48717;55.556;37.816;2023-05-10T08:31:05;7.55;;;1.95;;
62654;SDS011;48717;55.556;37.816;2023-05-10T08:33:32;9.07;;;2.25;;
62654;SDS011;48717;55.556;37.816;2023-05-10T08:36:00;13.98;;;2.25;;
62654;SDS011;48717;55.556;37.816;2023-05-10T08:38:27;4.68;;;1.90;;
62654;SDS011;48717;55.556;37.816;2023-05-10T08:40:54;6.40;;;2.15;;
62654;SDS011;48717;55.556;37.816;2023-05-10T08:43:28;3.90;;;1.73;;
62654;SDS011;48717;55.556;37.816;2023-05-10T08:45:59;4.38;;;1.80;;
62654;SDS011;48717;55.556;37.816;2023-05-10T08:48:27;4.05;;;1.80;;
62654;SDS011;48717;55.556;37.816;2023-05-10T08:50:57;2.35;;;1.75;;
62654;SDS011;48717;55.556;37.816;2023-05-10T08:53:27;3.47;;;1.73;;
62654;SDS011;48717;55.556;37.816;2023-05-10T08:55:57;2.50;;;1.73;;
62654;SDS011;48717;55.556;37.816;2023-05-10T08:58:24;2.92;;;1.58;;
62654;SDS011;48717;55.556;37.816;2023-05-10T09:00:52;3.70;;;1.70;;
62654;SDS011;48717;55.556;37.816;2023-05-10T09:03:20;4.45;;;1.73;;
62654;SDS011;48717;55.556;37.816;2023-05-10T09:05:48;6.43;;;2.22;;
62654;SDS011;48717;55.556;37.816;2023-05-10T09:08:15;5.85;;;1.70;;
62654;SDS011;48717;55.556;37.816;2023-05-10T09:10:44;4.07;;;2.70;;
62654;SDS011;48717;55.556;37.816;2023-05-10T09:13:14;7.32;;;2.92;;
62654;SDS011;48717;55.556;37.816;2023-05-10T09:15:42;7.28;;;2.60;;
62654;SDS011;48717;55.556;37.816;2023-05-10T09:18:10;8.73;;;2.58;;
62654;SDS011;48717;55.556;37.816;2023-05-10T09:20:38;5.68;;;1.90;;
62654;SDS011;48717;55.556;37.816;2023-05-10T09:23:05;2.80;;;1.70;;
62654;SDS011;48717;55.556;37.816;2023-05-10T09:25:33;2.92;;;1.80;;
62654;SDS011;48717;55.556;37.816;2023-05-10T09:28:01;5.45;;;1.65;;
62654;SDS011;48717;55.556;37.816;2023-05-10T09:30:29;3.55;;;2.00;;
62654;SDS011;48717;55.556;37.816;2023-05-10T09:32:57;5.53;;;1.90;;
62654;SDS011;48717;55.556;37.816;2023-05-10T09:35:26;3.92;;;1.85;;
62654;SDS011;48717;55.556;37.816;2023-05-10T09:40:25;3.35;;;1.77;;
62654;SDS011;48717;55.556;37.816;2023-05-10T09:42:57;6.30;;;2.15;;
62654;SDS011;48717;55.556;37.816;2023-05-10T09:45:25;6.03;;;2.00;;
62654;SDS011;48717;55.556;37.816;2023-05-10T09:47:55;3.08;;;2.05;;
62654;SDS011;48717;55.556;37.816;2023-05-10T09:50:22;3.67;;;1.92;;
62654;SDS011;48717;55.556;37.816;2023-05-10T09:52:51;9.07;;;2.40;;
62654;SDS011;48717;55.556;37.816;2023-05-10T09:55:21;13.98;;;2.75;;
62654;SDS011;48717;55.556;37.816;2023-05-10T09:57:58;16.73;;;2.78;;
62654;SDS011;48717;55.556;37.816;2023-05-10T10:00:27;6.97;;;2.22;;
62654;SDS011;48717;55.556;37.816;2023-05-10T10:02:58;4.13;;;2.17;;
62654;SDS011;48717;55.556;37.816;2023-05-10T10:08:01;4.03;;;2.13;;
62654;SDS011;48717;55.556;37.816;2023-05-10T10:10:31;4.90;;;2.10;;
62654;SDS011;48717;55.556;37.816;2023-05-10T10:12:59;6.73;;;2.30;;
62654;SDS011;48717;55.556;37.816;2023-05-10T10:15:27;5.28;;;2.33;;
62654;SDS011;48717;55.556;37.816;2023-05-10T10:17:54;4.07;;;2.22;;
62654;SDS011;48717;55.556;37.816;2023-05-10T10:20:22;6.72;;;2.13;;
62654;SDS011;48717;55.556;37.816;2023-05-10T10:22:50;8.00;;;2.10;;
62654;SDS011;48717;55.556;37.816;2023-05-10T10:25:18;5.40;;;2.20;;
62654;SDS011;48717;55.556;37.816;2023-05-10T10:30:35;2.53;;;1.98;;
62654;SDS011;48717;55.556;37.816;2023-05-10T10:36:01;5.05;;;2.40;;
62654;SDS011;48717;55.556;37.816;2023-05-10T10:41:34;5.78;;;2.67;;
62654;SDS011;48717;55.556;37.816;2023-05-10T10:49:51;4.28;;;2.50;;
62654;SDS011;48717;55.556;37.816;2023-05-10T10:52:31;5.22;;;2.42;;
62654;SDS011;48717;55.556;37.816;2023-05-10T10:55:06;6.32;;;2.50;;
62654;SDS011;48717;55.556;37.816;2023-05-10T11:02:47;8.80;;;2.72;;
62654;SDS011;48717;55.556;37.816;2023-05-10T11:05:24;6.47;;;2.65;;
62654;SDS011;48717;55.556;37.816;2023-05-10T11:08:00;4.60;;;2.40;;
62654;SDS011;48717;55.556;37.816;2023-05-10T11:10:34;6.15;;;2.50;;
62654;SDS011;48717;55.556;37.816;2023-05-10T11:13:04;7.45;;;2.50;;
62654;SDS011;48717;55.556;37.816;2023-05-10T11:15:34;7.22;;;2.60;;
62654;SDS011;48717;55.556;37.816;2023-05-10T11:18:18;5.22;;;2.55;;
62654;SDS011;48717;55.556;37.816;2023-05-10T11:23:30;6.70;;;2.88;;
62654;SDS011;48717;55.556;37.816;2023-05-10T11:26:07;5.60;;;2.33;;
62654;SDS011;48717;55.556;37.816;2023-05-10T11:28:41;7.25;;;2.50;;
62654;SDS011;48717;55.556;37.816;2023-05-10T11:31:16;7.68;;;2.85;;
62654;SDS011;48717;55.556;37.816;2023-05-10T11:33:45;4.65;;;2.50;;
62654;SDS011;48717;55.556;37.816;2023-05-10T11:36:17;12.05;;;3.47;;
62654;SDS011;48717;55.556;37.816;2023-05-10T11:38:50;5.70;;;2.40;;
62654;SDS011;48717;55.556;37.816;2023-05-10T11:41:18;7.28;;;3.33;;
62654;SDS011;48717;55.556;37.816;2023-05-10T11:43:54;6.75;;;3.15;;
62654;SDS011;48717;55.556;37.816;2023-05-10T11:46:23;5.25;;;2.92;;
62654;SDS011;48717;55.556;37.816;2023-05-10T11:48:55;5.13;;;2.97;;
62654;SDS011;48717;55.556;37.816;2023-05-10T11:51:28;13.10;;;3.10;;
62654;SDS011;48717;55.556;37.816;2023-05-10T11:53:55;8.90;;;3.70;;
62654;SDS011;48717;55.556;37.816;2023-05-10T11:56:24;5.97;;;3.28;;
62654;SDS011;48717;55.556;37.816;2023-05-10T11:58:56;5.85;;;3.90;;
62654;SDS011;48717;55.556;37.816;2023-05-10T12:01:25;6.88;;;2.80;;
62654;SDS011;48717;55.556;37.816;2023-05-10T12:03:54;7.60;;;2.40;;
62654;SDS011;48717;55.556;37.816;2023-05-10T12:06:29;12.40;;;2.95;;
62654;SDS011;48717;55.556;37.816;2023-05-10T12:08:58;7.10;;;2.80;;
62654;SDS011;48717;55.556;37.816;2023-05-10T12:11:26;9.82;;;2.78;;
62654;SDS011;48717;55.556;37.816;2023-05-10T12:13:55;7.90;;;2.58;;
62654;SDS011;48717;55.556;37.816;2023-05-10T12:16:24;7.00;;;2.80;;
62654;SDS011;48717;55.556;37.816;2023-05-10T12:18:59;12.68;;;4.07;;
62654;SDS011;48717;55.556;37.816;2023-05-10T12:21:28;5.15;;;3.05;;
62654;SDS011;48717;55.556;37.816;2023-05-10T12:24:03;4.20;;;2.95;;
62654;SDS011;48717;55.556;37.816;2023-05-10T12:26:34;5.97;;;2.70;;
62654;SDS011;48717;55.556;37.816;2023-05-10T12:29:14;9.13;;;3.33;;
62654;SDS011;48717;55.556;37.816;2023-05-10T12:31:50;11.73;;;2.63;;
62654;SDS011;48717;55.556;37.816;2023-05-10T12:34:25;16.55;;;3.50;;
62654;SDS011;48717;55.556;37.816;2023-05-10T12:36:53;9.15;;;2.90;;
62654;SDS011;48717;55.556;37.816;2023-05-10T12:39:21;8.57;;;2.67;;
62654;SDS011;48717;55.556;37.816;2023-05-10T12:41:48;11.88;;;2.90;;
62654;SDS011;48717;55.556;37.816;2023-05-10T12:44:15;5.57;;;2.60;;
62654;SDS011;48717;55.556;37.816;2023-05-10T12:46:43;11.40;;;2.80;;
62654;SDS011;48717;55.556;37.816;2023-05-10T12:49:10;5.78;;;2.60;;
62654;SDS011;48717;55.556;37.816;2023-05-10T12:51:37;10.40;;;2.97;;
62654;SDS011;48717;55.556;37.816;2023-05-10T12:54:04;5.50;;;3.08;;
62654;SDS011;48717;55.556;37.816;2023-05-10T12:56:32;6.47;;;2.40;;
62654;SDS011;48717;55.556;37.816;2023-05-10T12:58:59;8.68;;;3.38;;
62654;SDS011;48717;55.556;37.816;2023-05-10T13:01:26;72.47;;;46.58;;
62654;SDS011;48717;55.556;37.816;2023-05-10T13:03:53;16.70;;;12.73;;
62654;SDS011;48717;55.556;37.816;2023-05-10T13:06:20;11.02;;;2.80;;
62654;SDS011;48717;55.556;37.816;2023-05-10T13:08:47;11.45;;;3.58;;
62654;SDS011;48717;55.556;37.816;2023-05-10T13:11:14;10.48;;;2.83;;
62654;SDS011;48717;55.556;37.816;2023-05-10T13:13:43;7.43;;;2.60;;
62654;SDS011;48717;55.556;37.816;2023-05-10T13:16:12;3.75;;;3.10;;
62654;SDS011;48717;55.556;37.816;2023-05-10T13:18:39;10.10;;;4.75;;
62654;SDS011;48717;55.556;37.816;2023-05-10T13:21:06;7.82;;;2.60;;
62654;SDS011;48717;55.556;37.816;2023-05-10T13:23:34;6.00;;;2.78;;
62654;SDS011;48717;55.556;37.816;2023-05-10T13:26:01;3.75;;;2.60;;
62654;SDS011;48717;55.556;37.816;2023-05-10T13:28:28;5.63;;;2.70;;
62654;SDS011;48717;55.556;37.816;2023-05-10T13:30:56;4.65;;;2.40;;
62654;SDS011;48717;55.556;37.816;2023-05-10T13:33:23;6.32;;;2.42;;
62654;SDS011;48717;55.556;37.816;2023-05-10T13:35:50;4.35;;;2.67;;
62654;SDS011;48717;55.556;37.816;2023-05-10T13:38:21;6.20;;;2.72;;
62654;SDS011;48717;55.556;37.816;2023-05-10T13:40:48;17.77;;;4.00;;
62654;SDS011;48717;55.556;37.816;2023-05-10T13:43:19;8.15;;;2.80;;
62654;SDS011;48717;55.556;37.816;2023-05-10T13:45:46;4.38;;;2.67;;
62654;SDS011;48717;55.556;37.816;2023-05-10T13:48:13;30.77;;;16.10;;
62654;SDS011;48717;55.556;37.816;2023-05-10T13:50:41;8.63;;;2.75;;
62654;SDS011;48717;55.556;37.816;2023-05-10T13:53:08;6.85;;;2.88;;
62654;SDS011;48717;55.556;37.816;2023-05-10T13:55:35;4.00;;;2.70;;
62654;SDS011;48717;55.556;37.816;2023-05-10T13:58:02;11.05;;;2.70;;
62654;SDS011;48717;55.556;37.816;2023-05-10T14:00:29;4.80;;;2.65;;
62654;SDS011;48717;55.556;37.816;2023-05-10T14:02:56;13.50;;;3.25;;
62654;SDS011;48717;55.556;37.816;2023-05-10T14:05:23;4.82;;;2.90;;
62654;SDS011;48717;55.556;37.816;2023-05-10T14:07:52;8.93;;;3.10;;
62654;SDS011;48717;55.556;37.816;2023-05-10T14:10:20;3.50;;;2.85;;
62654;SDS011;48717;55.556;37.816;2023-05-10T14:12:47;5.70;;;2.60;;
62654;SDS011;48717;55.556;37.816;2023-05-10T14:15:14;4.95;;;2.65;;
62654;SDS011;48717;55.556;37.816;2023-05-10T14:17:42;8.13;;;2.75;;
62654;SDS011;48717;55.556;37.816;2023-05-10T14:20:09;5.97;;;2.92;;
62654;SDS011;48717;55.556;37.816;2023-05-10T14:22:37;8.13;;;2.97;;
62654;SDS011;48717;55.556;37.816;2023-05-10T14:25:04;13.43;;;3.40;;
62654;SDS011;48717;55.556;37.816;2023-05-10T14:27:31;3.35;;;2.70;;
62654;SDS011;48717;55.556;37.816;2023-05-10T14:29:59;2.90;;;2.15;;
62654;SDS011;48717;55.556;37.816;2023-05-10T14:32:26;3.97;;;2.78;;
62654;SDS011;48717;55.556;37.816;2023-05-10T14:34:54;5.18;;;2.50;;
62654;SDS011;48717;55.556;37.816;2023-05-10T14:37:21;11.43;;;3.15;;
62654;SDS011;48717;55.556;37.816;2023-05-10T14:39:48;7.57;;;3.30;;
62654;SDS011;48717;55.556;37.816;2023-05-10T14:42:15;7.85;;;3.03;;
62654;SDS011;48717;55.556;37.816;2023-05-10T14:44:42;11.88;;;3.53;;
62654;SDS011;48717;55.556;37.816;2023-05-10T14:47:09;21.30;;;3.40;;
62654;SDS011;48717;55.556;37.816;2023-05-10T14:49:37;9.18;;;2.88;;
62654;SDS011;48717;55.556;37.816;2023-05-10T14:52:05;8.07;;;2.65;;
62654;SDS011;48717;55.556;37.816;2023-05-10T14:54:32;4.22;;;2.67;;
62654;SDS011;48717;55.556;37.816;2023-05-10T14:57:00;6.68;;;2.50;;
62654;SDS011;48717;55.556;37.816;2023-05-10T14:59:27;7.30;;;2.58;;
62654;SDS011;48717;55.556;37.816;2023-05-10T15:01:54;6.18;;;2.42;;
62654;SDS011;48717;55.556;37.816;2023-05-10T15:04:22;6.43;;;2.80;;
62654;SDS011;48717;55.556;37.816;2023-05-10T15:06:52;7.85;;;3.10;;
62654;SDS011;48717;55.556;37.816;2023-05-10T15:09:26;8.15;;;3.20;;
62654;SDS011;48717;55.556;37.816;2023-05-10T15:11:54;11.15;;;3.75;;
62654;SDS011;48717;55.556;37.816;2023-05-10T15:14:22;10.75;;;4.00;;
62654;SDS011;48717;55.556;37.816;2023-05-10T15:16:49;11.82;;;4.53;;
62654;SDS011;48717;55.556;37.816;2023-05-10T15:19:16;11.02;;;3.60;;
62654;SDS011;48717;55.556;37.816;2023-05-10T15:21:43;12.48;;;4.55;;
62654;SDS011;48717;55.556;37.816;2023-05-10T15:24:11;18.75;;;4.35;;
62654;SDS011;48717;55.556;37.816;2023-05-10T15:26:38;13.82;;;3.85;;
62654;SDS011;48717;55.556;37.816;2023-05-10T15:29:05;16.85;;;4.20;;
62654;SDS011;48717;55.556;37.816;2023-05-10T15:31:32;20.83;;;4.47;;